Crawford, Tennessee
Current Conditions -  °F | °C
As of 11:53 AM on Tuesday 21 Oct 2014 (Local Time) from KCSV Reporting Station
Few Clouds Few Clouds  
Wind Chill: 63°   Ceiling: Unl
Heat Index: 63°   Visibility: 10mi
Dew Point: 41°   Wind: 12mph
Humidity: 45%   Direction: 320°NW
Pressure: 30.07"   Gusts: 18mph
Location:  36.27°N, 85.16°W
Report Text: KCSV 211653Z AUTO 32010G16KT 10SM FEW042 17/05 A3007 RMK AO2 SLP173 T01720050
Loading
Personal Weather Stations






























Interactive Weather Map
Tropical Storm Tracking
New forecast layout! Learn more

10-Day Weather Forecast

Advertisements
Track Severe Weather on mobile